createdAt,value
2018-04-28T00:00:03.693Z,63.50
2018-04-28T00:02:44.068Z,63.70
2018-04-28T00:05:23.539Z,63.60
2018-04-28T00:08:03.143Z,63.60
2018-04-28T00:10:42.763Z,63.80
2018-04-28T00:13:22.232Z,63.60
2018-04-28T00:16:16.525Z,63.60
2018-04-28T00:19:04.841Z,64.10
2018-04-28T00:22:05.058Z,64.40
2018-04-28T00:24:48.754Z,64.30
2018-04-28T00:30:39.489Z,64.30
2018-04-28T00:33:22.007Z,64.20
2018-04-28T00:36:17.700Z,64.20
2018-04-28T00:38:57.202Z,64.30
2018-04-28T00:41:36.773Z,64.50
2018-04-28T00:44:18.157Z,64.60
2018-04-28T00:46:59.466Z,64.80
2018-04-28T00:49:44.374Z,64.70
2018-04-28T00:52:28.233Z,65.70
2018-04-28T00:55:08.485Z,64.90
2018-04-28T00:57:55.228Z,65.00
2018-04-28T01:00:40.388Z,65.40
2018-04-28T01:03:24.242Z,65.20
2018-04-28T01:06:03.901Z,65.00
2018-04-28T01:08:43.476Z,65.50
2018-04-28T01:11:28.464Z,65.30
2018-04-28T01:17:25.275Z,65.00
2018-04-28T01:20:10.243Z,65.10
2018-04-28T01:22:50.561Z,65.10
2018-04-28T01:25:35.622Z,64.90
2018-04-28T01:28:16.942Z,65.00
2018-04-28T01:31:00.072Z,65.00
2018-04-28T01:37:06.160Z,64.70
2018-04-28T01:39:46.418Z,65.00
2018-04-28T01:42:52.999Z,64.90
2018-04-28T01:45:54.093Z,64.90
2018-04-28T01:48:41.352Z,65.00
2018-04-28T01:51:21.581Z,64.90
2018-04-28T01:54:31.475Z,64.80
2018-04-28T01:57:12.661Z,64.90
2018-04-28T01:59:54.582Z,64.80
2018-04-28T02:02:44.061Z,64.80
2018-04-28T02:05:23.485Z,65.30
2018-04-28T02:08:04.340Z,65.40
2018-04-28T02:10:49.750Z,65.40
2018-04-28T02:13:35.739Z,65.10
2018-04-28T02:16:24.637Z,65.30
2018-04-28T02:19:23.601Z,65.20
2018-04-28T02:22:27.825Z,65.20
2018-04-28T02:25:13.033Z,65.30
2018-04-28T02:28:09.000Z,65.80
2018-04-28T02:30:49.502Z,65.70
2018-04-28T02:33:29.978Z,65.70
2018-04-28T02:36:19.079Z,66.20
2018-04-28T02:38:59.242Z,66.30
2018-04-28T02:41:46.847Z,66.60
2018-04-28T02:44:44.962Z,67.20
2018-04-28T02:47:27.146Z,67.10
2018-04-28T02:50:14.476Z,66.90
2018-04-28T02:52:53.940Z,68.20
2018-04-28T02:56:04.042Z,68.90
2018-04-28T02:58:52.450Z,69.30
2018-04-28T03:01:43.701Z,70.00
2018-04-28T03:04:24.072Z,70.60
2018-04-28T03:07:22.430Z,71.10
2018-04-28T03:10:16.799Z,71.20
2018-04-28T03:12:56.198Z,71.00
2018-04-28T03:15:35.672Z,70.70
2018-04-28T03:18:15.250Z,71.00
2018-04-28T03:20:56.296Z,69.90
2018-04-28T03:23:39.207Z,69.70
2018-04-28T03:26:25.354Z,69.30
2018-04-28T03:29:09.516Z,68.50
2018-04-28T03:31:50.670Z,68.80
2018-04-28T03:34:50.692Z,69.10
2018-04-28T03:37:31.634Z,69.00
2018-04-28T03:40:30.724Z,68.90
2018-04-28T03:43:30.329Z,68.90
2018-04-28T03:46:18.662Z,69.20
2018-04-28T03:49:05.007Z,68.90
2018-04-28T03:51:57.917Z,68.80
2018-04-28T03:54:37.505Z,69.70
2018-04-28T03:57:37.618Z,69.50
2018-04-28T04:00:29.040Z,69.50
2018-04-28T04:03:20.035Z,70.00
2018-04-28T04:06:06.292Z,69.60
2018-04-28T04:08:52.477Z,70.30
2018-04-28T04:11:52.332Z,69.70
2018-04-28T04:14:51.209Z,69.70
2018-04-28T04:20:59.771Z,70.70
2018-04-28T04:24:14.669Z,71.40
2018-04-28T04:30:06.066Z,71.40
2018-04-28T04:32:46.353Z,70.10
2018-04-28T04:35:43.494Z,69.40
2018-04-28T04:38:27.306Z,68.80
2018-04-28T04:41:15.576Z,67.60
2018-04-28T04:47:43.214Z,67.00
2018-04-28T04:50:29.257Z,65.00
2018-04-28T04:56:35.757Z,62.80
2018-04-28T04:59:27.054Z,62.60
2018-04-28T05:02:13.083Z,62.10
2018-04-28T05:05:04.559Z,62.50
2018-04-28T05:07:46.834Z,61.70
2018-04-28T05:10:44.797Z,62.50
2018-04-28T05:13:39.026Z,61.40
2018-04-28T05:16:30.279Z,61.00
2018-04-28T05:19:35.472Z,60.40
2018-04-28T05:22:26.877Z,61.70
2018-04-28T05:25:17.785Z,60.80
2018-04-28T05:28:07.053Z,60.10
2018-04-28T05:30:49.338Z,59.40
2018-04-28T05:33:37.603Z,58.30
2018-04-28T05:36:23.765Z,56.20
2018-04-28T05:42:16.849Z,53.50
2018-04-28T05:45:11.721Z,54.50
2018-04-28T05:47:58.530Z,52.70
2018-04-28T05:53:48.753Z,50.70
2018-04-28T05:56:39.776Z,50.30
2018-04-28T05:59:39.694Z,50.20
2018-04-28T06:02:29.799Z,48.90
2018-04-28T06:05:12.726Z,48.20
2018-04-28T06:08:04.456Z,47.00
2018-04-28T06:10:53.009Z,47.00
2018-04-28T06:13:48.751Z,46.20
2018-04-28T06:16:38.408Z,46.30
2018-04-28T06:19:19.175Z,45.90
2018-04-28T06:21:58.947Z,47.30
2018-04-28T06:24:38.903Z,47.20
2018-04-28T06:27:17.942Z,48.10
2018-04-28T06:29:57.090Z,47.60
2018-04-28T06:32:36.253Z,47.90
2018-04-28T06:35:15.451Z,47.40
2018-04-28T06:37:54.745Z,48.00
2018-04-28T06:40:33.993Z,47.90
2018-04-28T06:43:14.593Z,47.60
2018-04-28T06:45:53.792Z,47.40
2018-04-28T06:48:33.077Z,47.30
2018-04-28T06:51:12.503Z,47.30
2018-04-28T06:53:52.485Z,46.50
2018-04-28T06:56:32.368Z,46.60
2018-04-28T06:59:11.705Z,46.50
2018-04-28T07:01:51.537Z,45.10
2018-04-28T07:04:30.732Z,45.00
2018-04-28T07:07:10.204Z,45.60
2018-04-28T07:09:49.836Z,44.60
2018-04-28T07:12:28.920Z,44.50
2018-04-28T07:15:08.336Z,44.10
2018-04-28T07:17:47.576Z,44.00
2018-04-28T07:20:26.675Z,44.70
2018-04-28T07:23:06.007Z,44.60
2018-04-28T07:25:45.089Z,43.10
2018-04-28T07:28:24.254Z,42.70
2018-04-28T07:31:03.450Z,42.90
2018-04-28T07:33:42.534Z,41.80
2018-04-28T07:36:21.888Z,42.50
2018-04-28T07:39:01.352Z,43.20
2018-04-28T07:41:40.608Z,41.30
2018-04-28T07:44:19.649Z,40.50
2018-04-28T07:46:59.545Z,37.70
2018-04-28T07:49:38.838Z,37.50
2018-04-28T07:52:18.625Z,35.30
2018-04-28T07:54:58.387Z,31.90
2018-04-28T07:57:38.324Z,33.00
2018-04-28T08:00:17.527Z,31.40
2018-04-28T08:02:56.954Z,30.60
2018-04-28T08:05:36.388Z,29.80
2018-04-28T08:08:15.458Z,31.30
2018-04-28T08:10:54.539Z,31.00
2018-04-28T08:13:34.248Z,31.10
2018-04-28T08:16:13.567Z,30.30
2018-04-28T08:18:53.208Z,29.80
2018-04-28T08:21:32.189Z,28.80
2018-04-28T08:24:11.248Z,27.50
2018-04-28T08:26:51.074Z,27.80
2018-04-28T08:29:30.179Z,27.80
2018-04-28T08:32:10.036Z,28.50
2018-04-28T08:34:49.140Z,28.50
2018-04-28T08:37:28.303Z,28.90
2018-04-28T08:40:07.681Z,27.60
2018-04-28T08:42:46.940Z,27.00
2018-04-28T08:45:26.689Z,24.80
2018-04-28T08:48:07.072Z,24.80
2018-04-28T08:50:47.689Z,25.70
2018-04-28T08:53:26.898Z,25.60
2018-04-28T08:56:06.051Z,25.00
2018-04-28T08:58:46.475Z,27.10
2018-04-28T09:01:26.333Z,27.10
2018-04-28T09:04:06.098Z,27.40
2018-04-28T09:06:46.060Z,27.00
2018-04-28T09:09:26.066Z,29.90
2018-04-28T09:12:07.455Z,27.80
2018-04-28T09:14:47.381Z,27.40
2018-04-28T09:17:26.965Z,26.90
2018-04-28T09:20:06.396Z,28.30
2018-04-28T09:22:46.333Z,25.20
2018-04-28T09:25:26.225Z,24.70
2018-04-28T09:28:05.710Z,24.60
2018-04-28T09:30:45.367Z,23.80
2018-04-28T09:33:25.154Z,22.90
2018-04-28T09:36:06.364Z,24.40
2018-04-28T09:38:46.290Z,24.40
2018-04-28T09:41:26.891Z,26.50
2018-04-28T09:44:06.770Z,26.50
2018-04-28T09:46:46.652Z,26.10
2018-04-28T09:49:26.603Z,24.60
2018-04-28T09:52:06.439Z,23.50
2018-04-28T09:54:45.652Z,23.90
2018-04-28T09:57:25.516Z,22.10
2018-04-28T10:00:16.133Z,23.00
2018-04-28T10:02:56.517Z,23.30
2018-04-28T10:05:36.290Z,25.00
2018-04-28T10:08:16.315Z,23.80
2018-04-28T10:10:56.175Z,24.80
2018-04-28T10:13:35.893Z,25.50
2018-04-28T10:16:15.810Z,26.40
2018-04-28T10:18:55.781Z,25.70
2018-04-28T10:21:35.575Z,22.10
2018-04-28T10:24:15.511Z,22.20
2018-04-28T10:26:55.306Z,23.50
2018-04-28T10:29:34.908Z,23.40
2018-04-28T10:32:14.872Z,21.90
2018-04-28T10:34:54.961Z,24.70
2018-04-28T10:37:34.888Z,25.50
2018-04-28T10:40:14.920Z,23.70
2018-04-28T10:42:54.903Z,23.50
2018-04-28T10:45:34.719Z,23.20
2018-04-28T10:48:14.576Z,24.00
2018-04-28T10:50:54.552Z,26.40
2018-04-28T10:53:34.707Z,25.30
2018-04-28T10:56:14.707Z,26.40
2018-04-28T10:58:54.658Z,26.50
2018-04-28T11:01:34.589Z,25.70
2018-04-28T11:04:14.352Z,25.40
2018-04-28T11:06:54.962Z,25.60
2018-04-28T11:09:34.835Z,25.60
2018-04-28T11:12:15.532Z,26.70
2018-04-28T11:14:56.245Z,25.90
2018-04-28T11:17:36.464Z,26.00
2018-04-28T11:20:15.987Z,25.10
2018-04-28T11:22:55.950Z,25.80
2018-04-28T11:25:36.554Z,27.20
2018-04-28T11:28:16.444Z,27.20
2018-04-28T11:30:56.229Z,24.20
2018-04-28T11:33:37.213Z,22.70
2018-04-28T11:36:18.023Z,24.10
2018-04-28T11:38:57.906Z,24.00
2018-04-28T11:41:37.743Z,23.80
2018-04-28T11:44:17.495Z,22.80
2018-04-28T11:46:57.460Z,25.20
2018-04-28T11:49:37.648Z,23.80
2018-04-28T11:52:18.275Z,22.00
2018-04-28T11:54:58.884Z,23.50
2018-04-28T11:57:38.731Z,23.50
2018-04-28T12:00:18.457Z,24.20
2018-04-28T12:02:58.348Z,24.30
2018-04-28T12:05:37.827Z,23.00
2018-04-28T12:08:17.871Z,24.30
2018-04-28T12:10:57.921Z,24.40
2018-04-28T12:13:38.108Z,25.80
2018-04-28T12:16:18.072Z,27.50
2018-04-28T12:18:58.005Z,26.90
2018-04-28T12:21:37.633Z,27.60
2018-04-28T12:24:17.600Z,27.30
2018-04-28T12:26:59.326Z,29.20
2018-04-28T12:29:39.228Z,29.20
2018-04-28T12:32:18.959Z,29.50
2018-04-28T12:34:59.748Z,28.00
2018-04-28T12:37:40.611Z,28.00
2018-04-28T12:40:20.380Z,29.50
2018-04-28T12:43:00.157Z,29.90
2018-04-28T12:45:40.105Z,28.50
2018-04-28T12:48:20.012Z,29.90
2018-04-28T12:50:59.794Z,31.50
2018-04-28T12:53:40.298Z,30.50
2018-04-28T12:56:20.154Z,30.40
2018-04-28T12:59:00.717Z,27.40
2018-04-28T13:01:40.716Z,27.30
2018-04-28T13:04:21.240Z,27.20
2018-04-28T13:07:01.892Z,29.90
2018-04-28T13:09:41.727Z,29.40
2018-04-28T13:12:21.208Z,28.40
2018-04-28T13:15:00.953Z,28.40
2018-04-28T13:17:41.656Z,28.80
2018-04-28T13:20:21.582Z,28.80
2018-04-28T13:23:02.203Z,29.30
2018-04-28T13:25:42.069Z,29.20
2018-04-28T13:28:21.859Z,29.80
2018-04-28T13:31:02.265Z,31.50
2018-04-28T13:33:42.028Z,31.50
2018-04-28T13:36:21.821Z,29.90
2018-04-28T13:39:01.782Z,30.80
2018-04-28T13:41:42.545Z,30.40
2018-04-28T13:44:22.996Z,29.50
2018-04-28T13:47:02.901Z,29.70
2018-04-28T13:49:42.997Z,28.90
2018-04-28T13:52:22.850Z,30.00
2018-04-28T13:55:02.865Z,30.70
2018-04-28T13:57:42.428Z,28.80
2018-04-28T14:00:22.596Z,30.00
2018-04-28T14:03:02.387Z,30.10
2018-04-28T14:05:43.119Z,30.00
2018-04-28T14:08:23.051Z,28.50
2018-04-28T14:11:02.993Z,30.00
2018-04-28T14:13:42.832Z,29.20
2018-04-28T14:16:22.843Z,28.70
2018-04-28T14:19:02.601Z,30.50
2018-04-28T14:21:43.294Z,31.10
2018-04-28T14:24:24.288Z,30.50
2018-04-28T14:27:03.819Z,30.50
2018-04-28T14:29:43.888Z,31.80
2018-04-28T14:32:23.792Z,31.40
2018-04-28T14:35:03.593Z,30.60
2018-04-28T14:37:43.366Z,30.80
2018-04-28T14:40:23.115Z,33.20
2018-04-28T14:43:02.908Z,31.70
2018-04-28T14:45:43.552Z,33.40
2018-04-28T14:48:23.855Z,31.40
2018-04-28T14:51:03.761Z,31.70
2018-04-28T14:53:43.763Z,30.90
2018-04-28T14:56:23.556Z,33.30
2018-04-28T14:59:03.713Z,34.60
2018-04-28T15:01:44.318Z,34.70
2018-04-28T15:04:24.537Z,35.20
2018-04-28T15:07:04.424Z,35.20
2018-04-28T15:09:44.231Z,34.80
2018-04-28T15:12:24.221Z,34.00
2018-04-28T15:15:03.463Z,34.50
2018-04-28T15:17:43.338Z,34.80
2018-04-28T15:20:23.259Z,34.30
2018-04-28T15:23:03.897Z,35.40
2018-04-28T15:25:44.594Z,34.70
2018-04-28T15:28:25.147Z,34.60
2018-04-28T15:31:05.470Z,35.70
2018-04-28T15:33:45.339Z,35.70
2018-04-28T15:36:26.267Z,34.50
2018-04-28T15:39:06.167Z,36.00
2018-04-28T15:41:46.004Z,37.70
2018-04-28T15:44:26.782Z,37.10
2018-04-28T15:47:06.621Z,37.10
2018-04-28T15:49:46.353Z,38.30
2018-04-28T15:52:26.301Z,36.90
2018-04-28T15:55:06.323Z,36.40
2018-04-28T15:57:46.260Z,37.70
2018-04-28T16:00:26.180Z,36.80
2018-04-28T16:03:05.661Z,37.80
2018-04-28T16:05:45.651Z,36.90
2018-04-28T16:08:25.238Z,36.50
2018-04-28T16:11:04.773Z,37.80
2018-04-28T16:13:44.535Z,37.60
2018-04-28T16:16:25.258Z,37.80
2018-04-28T16:19:05.085Z,37.80
2018-04-28T16:21:45.114Z,38.30
2018-04-28T16:24:25.088Z,37.40
2018-04-28T16:27:05.969Z,38.50
2018-04-28T16:29:45.829Z,39.20
2018-04-28T16:32:27.039Z,39.50
2018-04-28T16:35:07.621Z,39.50
2018-04-28T16:37:47.279Z,39.20
2018-04-28T16:40:27.108Z,40.50
2018-04-28T16:43:07.139Z,40.20
2018-04-28T16:45:47.853Z,41.30
2018-04-28T16:48:27.592Z,41.20
2018-04-28T16:51:07.373Z,40.40
2018-04-28T16:53:47.420Z,39.90
2018-04-28T16:56:28.184Z,41.20
2018-04-28T16:59:09.198Z,40.60
2018-04-28T17:01:49.357Z,40.60
2018-04-28T17:04:29.162Z,40.40
2018-04-28T17:07:08.949Z,40.40
2018-04-28T17:09:49.668Z,41.50
2018-04-28T17:12:29.584Z,41.50
2018-04-28T17:15:10.833Z,41.40
2018-04-28T17:17:54.278Z,42.50
2018-04-28T17:20:34.012Z,42.50
2018-04-28T17:23:14.782Z,42.50
2018-04-28T17:25:55.497Z,43.50
2018-04-28T17:28:35.507Z,43.50
2018-04-28T17:31:16.140Z,42.70
2018-04-28T17:33:55.793Z,44.60
2018-04-28T17:36:35.644Z,45.10
2018-04-28T17:39:16.755Z,45.40
2018-04-28T17:41:57.473Z,45.40
2018-04-28T17:44:37.346Z,46.00
2018-04-28T17:47:17.919Z,47.30
2018-04-28T17:49:57.720Z,47.30
2018-04-28T17:52:37.508Z,46.00
2018-04-28T17:55:17.375Z,45.60
2018-04-28T17:57:57.181Z,46.20
2018-04-28T18:00:37.892Z,47.60
2018-04-28T18:03:17.768Z,47.30
2018-04-28T18:05:57.546Z,47.90
2018-04-28T18:08:38.548Z,47.90
2018-04-28T18:11:18.530Z,47.90
2018-04-28T18:13:58.418Z,48.30
2018-04-28T18:16:38.713Z,48.60
2018-04-28T18:19:18.592Z,48.50
2018-04-28T18:21:58.573Z,50.10
2018-04-28T18:24:40.043Z,47.90
2018-04-28T18:27:20.015Z,47.90
2018-04-28T18:30:00.169Z,48.50
2018-04-28T18:32:40.704Z,51.30
2018-04-28T18:35:20.653Z,51.30
2018-04-28T18:38:00.630Z,51.10
2018-04-28T18:40:40.560Z,52.30
2018-04-28T18:43:20.703Z,51.90
2018-04-28T18:46:00.730Z,52.30
2018-04-28T18:48:40.844Z,53.30
2018-04-28T18:51:20.586Z,53.50
2018-04-28T18:54:00.601Z,53.90
2018-04-28T18:56:40.449Z,53.70
2018-04-28T18:59:20.344Z,54.20
2018-04-28T19:02:00.101Z,54.90
2018-04-28T19:04:40.054Z,55.90
2018-04-28T19:07:19.860Z,55.30
2018-04-28T19:09:59.957Z,54.80
2018-04-28T19:12:39.896Z,55.80
2018-04-28T19:15:20.689Z,57.00
2018-04-28T19:18:00.477Z,56.50
2018-04-28T19:20:41.023Z,56.90
2018-04-28T19:23:20.686Z,56.90
2018-04-28T19:26:01.166Z,57.90
2018-04-28T19:28:40.969Z,57.90
2018-04-28T19:31:20.417Z,58.80
2018-04-28T19:34:00.455Z,57.80
2018-04-28T19:36:40.320Z,58.90
2018-04-28T19:39:20.311Z,59.10
2018-04-28T19:42:00.315Z,56.70
2018-04-28T19:44:40.248Z,57.90
2018-04-28T19:47:20.511Z,59.40
2018-04-28T19:50:00.261Z,59.20
2018-04-28T19:52:40.231Z,60.00
2018-04-28T19:55:20.443Z,60.40
2018-04-28T19:58:00.197Z,60.30
2018-04-28T20:00:40.104Z,59.60
2018-04-28T20:03:19.901Z,59.00
2018-04-28T20:05:59.729Z,59.10
2018-04-28T20:08:39.501Z,59.90
2018-04-28T20:11:19.579Z,60.60
2018-04-28T20:13:59.358Z,61.00
2018-04-28T20:16:39.413Z,60.50
2018-04-28T20:19:19.385Z,61.10
2018-04-28T20:22:10.526Z,61.90
2018-04-28T20:25:01.673Z,61.40
2018-04-28T20:27:41.697Z,61.60
2018-04-28T20:30:21.179Z,62.40
2018-04-28T20:33:01.759Z,61.90
2018-04-28T20:35:41.918Z,61.80
2018-04-28T20:38:22.939Z,64.20
2018-04-28T20:41:03.516Z,64.20
2018-04-28T20:43:43.396Z,64.50
2018-04-28T20:46:23.449Z,64.00
2018-04-28T20:49:03.268Z,63.50
2018-04-28T20:51:44.270Z,62.50
2018-04-28T20:54:24.275Z,62.30
2018-04-28T20:57:04.673Z,62.10
2018-04-28T20:59:44.418Z,62.10
2018-04-28T21:02:24.523Z,62.20
2018-04-28T21:05:03.672Z,62.20
2018-04-28T21:07:43.615Z,61.90
2018-04-28T21:10:23.520Z,62.80
2018-04-28T21:13:03.829Z,63.40
2018-04-28T21:15:43.773Z,61.20
2018-04-28T21:18:23.900Z,60.60
2018-04-28T21:21:03.970Z,60.20
2018-04-28T21:23:44.020Z,60.40
2018-04-28T21:26:24.080Z,62.10
2018-04-28T21:29:03.912Z,61.40
2018-04-28T21:31:44.844Z,64.40
2018-04-28T21:34:25.136Z,64.30
2018-04-28T21:37:05.632Z,64.80
2018-04-28T21:39:45.795Z,65.20
2018-04-28T21:42:26.009Z,66.00
2018-04-28T21:45:06.205Z,66.00
2018-04-28T21:47:46.357Z,66.00
2018-04-28T21:50:27.368Z,65.60
2018-04-28T21:53:07.590Z,64.00
2018-04-28T21:55:47.665Z,65.10
2018-04-28T21:58:28.848Z,65.30
2018-04-28T22:01:09.132Z,65.80
2018-04-28T22:03:49.364Z,66.10
2018-04-28T22:06:29.489Z,66.40
2018-04-28T22:09:09.526Z,66.00
2018-04-28T22:11:49.720Z,66.20
2018-04-28T22:14:29.844Z,66.70
2018-04-28T22:17:10.017Z,66.70
2018-04-28T22:19:50.297Z,65.90
2018-04-28T22:22:31.258Z,67.00
2018-04-28T22:25:12.261Z,67.70
2018-04-28T22:27:52.485Z,67.60
2018-04-28T22:30:32.581Z,67.80
2018-04-28T22:33:12.698Z,68.30
2018-04-28T22:35:52.741Z,68.60
2018-04-28T22:38:32.822Z,68.90
2018-04-28T22:41:12.992Z,68.70
2018-04-28T22:43:53.065Z,68.50
2018-04-28T22:46:33.984Z,68.60
2018-04-28T22:49:14.257Z,68.60
2018-04-28T22:51:54.489Z,69.50
2018-04-28T22:54:34.773Z,69.80
2018-04-28T22:57:15.220Z,69.90
2018-04-28T22:59:55.251Z,69.80
2018-04-28T23:02:35.316Z,70.00
2018-04-28T23:05:15.049Z,70.30
2018-04-28T23:07:55.131Z,70.50
2018-04-28T23:10:35.218Z,70.90
2018-04-28T23:13:16.104Z,71.10
2018-04-28T23:15:56.268Z,71.10
2018-04-28T23:18:36.376Z,71.10
2018-04-28T23:21:16.584Z,71.00
2018-04-28T23:23:56.812Z,71.60
2018-04-28T23:26:36.884Z,71.50
2018-04-28T23:29:17.001Z,71.40
2018-04-28T23:31:57.259Z,71.10
2018-04-28T23:34:37.508Z,70.80
2018-04-28T23:37:17.616Z,70.90
2018-04-28T23:39:58.484Z,71.30
2018-04-28T23:42:38.734Z,72.00
2018-04-28T23:45:18.831Z,72.30
2018-04-28T23:47:59.672Z,72.60
2018-04-28T23:50:39.714Z,72.60
2018-04-28T23:53:19.752Z,72.80
2018-04-28T23:56:00.744Z,73.60
2018-04-28T23:58:41.000Z,73.60
